createdAt,value
2023-10-10T00:01:45.413Z,101975.13
2023-10-10T00:04:12.912Z,101984.47
2023-10-10T00:06:40.801Z,101973.22
2023-10-10T00:09:14.100Z,101978.63
2023-10-10T00:11:43.925Z,101976.50
2023-10-10T00:14:19.066Z,101982.38
2023-10-10T00:16:48.941Z,101966.59
2023-10-10T00:19:21.737Z,101971.56
2023-10-10T00:21:50.154Z,101973.81
2023-10-10T00:24:21.693Z,101972.75
2023-10-10T00:26:51.678Z,101974.84
2023-10-10T00:29:24.046Z,101976.50
2023-10-10T00:32:06.676Z,101979.44
2023-10-10T00:34:38.435Z,101978.81
2023-10-10T00:37:14.331Z,101974.72
2023-10-10T00:39:41.718Z,101974.31
2023-10-10T00:42:18.618Z,101979.13
2023-10-10T00:44:45.525Z,101969.94
2023-10-10T00:47:14.677Z,101965.59
2023-10-10T00:49:46.226Z,101976.84
2023-10-10T00:52:18.124Z,101968.94
2023-10-10T00:54:45.156Z,101975.25
2023-10-10T00:57:21.176Z,101966.13
2023-10-10T00:59:50.054Z,101963.44
2023-10-10T01:02:22.157Z,101964.25
2023-10-10T01:04:49.900Z,101959.00
2023-10-10T01:07:21.258Z,101956.31
2023-10-10T01:09:58.975Z,101954.03
2023-10-10T01:12:36.448Z,101950.50
2023-10-10T01:15:09.936Z,101946.13
2023-10-10T01:17:39.213Z,101949.28
2023-10-10T01:20:16.678Z,101953.88
2023-10-10T01:22:47.901Z,101949.31
2023-10-10T01:25:32.502Z,101939.78
2023-10-10T01:28:04.565Z,101944.78
2023-10-10T01:30:49.734Z,101943.09
2023-10-10T01:33:17.868Z,101944.16
2023-10-10T01:35:45.748Z,101950.41
2023-10-10T01:38:42.764Z,101943.97
2023-10-10T01:41:32.488Z,101941.06
2023-10-10T01:44:19.274Z,101938.56
2023-10-10T01:46:46.998Z,101940.44
2023-10-10T01:49:15.282Z,101939.41
2023-10-10T01:51:43.893Z,101936.06
2023-10-10T01:54:20.241Z,101937.56
2023-10-10T01:56:47.318Z,101931.94
2023-10-10T01:59:16.498Z,101939.22
2023-10-10T02:01:43.694Z,101936.28
2023-10-10T02:04:11.895Z,101937.97
2023-10-10T02:06:41.792Z,101931.72
2023-10-10T02:09:28.434Z,101931.56
2023-10-10T02:12:08.730Z,101921.22
2023-10-10T02:14:36.110Z,101927.03
2023-10-10T02:17:10.962Z,101932.06
2023-10-10T02:19:42.128Z,101919.34
2023-10-10T02:22:24.391Z,101917.72
2023-10-10T02:25:10.143Z,101917.28
2023-10-10T02:27:54.764Z,101911.63
2023-10-10T02:30:41.681Z,101916.06
2023-10-10T02:33:25.490Z,101917.53
2023-10-10T02:35:56.951Z,101909.25
2023-10-10T02:38:26.025Z,101905.75
2023-10-10T02:41:12.935Z,101909.25
2023-10-10T02:43:57.133Z,101913.81
2023-10-10T02:46:51.478Z,101915.31
2023-10-10T02:49:24.573Z,101920.53
2023-10-10T02:51:56.900Z,101912.22
2023-10-10T02:54:32.337Z,101917.28
2023-10-10T02:57:25.835Z,101919.78
2023-10-10T03:00:01.207Z,101921.88
2023-10-10T03:02:41.885Z,101923.34
2023-10-10T03:05:16.500Z,101920.91
2023-10-10T03:07:53.585Z,101918.81
2023-10-10T03:10:24.416Z,101922.97
2023-10-10T03:13:06.544Z,101925.06
2023-10-10T03:15:34.543Z,101919.44
2023-10-10T03:18:10.407Z,101918.19
2023-10-10T03:20:38.148Z,101918.78
2023-10-10T03:23:08.626Z,101915.69
2023-10-10T03:25:55.004Z,101917.81
2023-10-10T03:28:29.200Z,101919.25
2023-10-10T03:31:17.568Z,101914.22
2023-10-10T03:33:44.675Z,101905.28
2023-10-10T03:36:19.645Z,101911.47
2023-10-10T03:38:48.761Z,101911.47
2023-10-10T03:41:22.376Z,101908.63
2023-10-10T03:44:07.953Z,101908.81
2023-10-10T03:46:55.138Z,101909.50
2023-10-10T03:49:40.632Z,101914.72
2023-10-10T03:52:26.435Z,101911.16
2023-10-10T03:55:11.773Z,101913.44
2023-10-10T03:57:57.075Z,101908.44
2023-10-10T04:00:42.280Z,101902.06
2023-10-10T04:03:27.579Z,101913.50
2023-10-10T04:06:13.091Z,101910.59
2023-10-10T04:08:58.582Z,101910.38
2023-10-10T04:11:43.818Z,101910.00
2023-10-10T04:14:29.335Z,101914.53
2023-10-10T04:17:34.810Z,101907.72
2023-10-10T04:20:20.371Z,101897.53
2023-10-10T04:23:05.676Z,101897.75
2023-10-10T04:25:51.240Z,101904.59
2023-10-10T04:28:36.542Z,101906.06
2023-10-10T04:31:26.132Z,101901.03
2023-10-10T04:34:11.824Z,101903.53
2023-10-10T04:36:57.318Z,101902.06
2023-10-10T04:39:43.202Z,101901.69
2023-10-10T04:42:28.337Z,101904.19
2023-10-10T04:45:13.628Z,101908.16
2023-10-10T04:47:59.098Z,101898.63
2023-10-10T04:50:44.593Z,101896.97
2023-10-10T04:53:29.944Z,101896.34
2023-10-10T04:56:16.791Z,101895.31
2023-10-10T04:59:02.536Z,101897.41
2023-10-10T05:01:48.004Z,101892.44
2023-10-10T05:04:33.399Z,101898.22
2023-10-10T05:07:18.693Z,101898.06
2023-10-10T05:10:03.993Z,101894.31
2023-10-10T05:12:49.379Z,101895.16
2023-10-10T05:15:34.429Z,101897.00
2023-10-10T05:18:19.788Z,101889.13
2023-10-10T05:21:05.105Z,101888.50
2023-10-10T05:23:32.671Z,101889.53
2023-10-10T05:26:00.845Z,101892.66
2023-10-10T05:28:32.026Z,101889.75
2023-10-10T05:31:00.045Z,101892.66
2023-10-10T05:33:31.589Z,101894.56
2023-10-10T05:36:00.180Z,101895.16
2023-10-10T05:38:27.676Z,101891.44
2023-10-10T05:40:55.622Z,101891.44
2023-10-10T05:43:27.980Z,101896.41
2023-10-10T05:45:55.711Z,101893.09
2023-10-10T05:48:23.364Z,101894.56
2023-10-10T05:50:50.455Z,101892.25
2023-10-10T05:53:18.496Z,101890.38
2023-10-10T05:55:51.592Z,101882.69
2023-10-10T05:58:27.484Z,101889.75
2023-10-10T06:00:56.056Z,101890.19
2023-10-10T06:03:23.062Z,101887.28
2023-10-10T06:05:51.286Z,101890.78
2023-10-10T06:08:18.579Z,101891.38
2023-10-10T06:10:45.482Z,101899.47
2023-10-10T06:13:12.989Z,101889.97
2023-10-10T06:15:40.731Z,101899.09
2023-10-10T06:18:13.771Z,101895.16
2023-10-10T06:20:51.266Z,101892.66
2023-10-10T06:23:29.814Z,101893.91
2023-10-10T06:26:02.473Z,101889.97
2023-10-10T06:28:30.696Z,101894.31
2023-10-10T06:31:00.968Z,101896.16
2023-10-10T06:33:31.195Z,101893.03
2023-10-10T06:36:24.758Z,101902.97
2023-10-10T06:39:05.545Z,101903.59
2023-10-10T06:41:41.354Z,101904.41
2023-10-10T06:44:28.668Z,101911.50
2023-10-10T06:46:56.877Z,101910.03
2023-10-10T06:49:24.525Z,101912.31
2023-10-10T06:51:51.475Z,101911.84
2023-10-10T06:54:21.411Z,101913.31
2023-10-10T06:57:00.723Z,101908.25
2023-10-10T06:59:28.673Z,101907.78
2023-10-10T07:02:01.021Z,101911.13
2023-10-10T07:04:28.739Z,101914.81
2023-10-10T07:07:02.086Z,101917.81
2023-10-10T07:09:33.390Z,101910.13
2023-10-10T07:12:19.090Z,101908.78
2023-10-10T07:14:46.888Z,101917.06
2023-10-10T07:17:15.279Z,101915.09
2023-10-10T07:20:16.497Z,101913.44
2023-10-10T07:22:45.113Z,101919.44
2023-10-10T07:25:27.014Z,101919.53
2023-10-10T07:27:54.668Z,101921.06
2023-10-10T07:30:26.793Z,101920.66
2023-10-10T07:32:53.898Z,101923.03
2023-10-10T07:35:28.061Z,101924.50
2023-10-10T07:38:00.016Z,101921.28
2023-10-10T07:40:31.997Z,101924.09
2023-10-10T07:43:04.413Z,101928.19
2023-10-10T07:45:35.123Z,101922.88
2023-10-10T07:48:03.313Z,101927.84
2023-10-10T07:50:57.385Z,101931.72
2023-10-10T07:53:35.138Z,101929.50
2023-10-10T07:56:04.832Z,101932.16
2023-10-10T07:58:54.022Z,101931.25
2023-10-10T08:01:21.537Z,101936.44
2023-10-10T08:03:49.063Z,101937.88
2023-10-10T08:06:23.267Z,101937.25
2023-10-10T08:09:12.864Z,101933.66
2023-10-10T08:11:39.908Z,101944.69
2023-10-10T08:14:08.509Z,101938.06
2023-10-10T08:16:36.480Z,101942.88
2023-10-10T08:19:06.579Z,101944.47
2023-10-10T08:21:39.025Z,101948.50
2023-10-10T08:24:13.203Z,101942.19
2023-10-10T08:26:40.338Z,101949.91
2023-10-10T08:29:11.513Z,101944.16
2023-10-10T08:31:40.496Z,101942.25
2023-10-10T08:34:10.334Z,101942.16
2023-10-10T08:36:38.461Z,101945.25
2023-10-10T08:39:17.796Z,101941.59
2023-10-10T08:41:45.663Z,101943.19
2023-10-10T08:44:16.444Z,101935.38
2023-10-10T08:46:47.724Z,101936.94
2023-10-10T08:49:15.976Z,101944.25
2023-10-10T08:51:44.479Z,101936.09
2023-10-10T08:54:15.461Z,101931.97
2023-10-10T08:56:44.207Z,101935.63
2023-10-10T08:59:12.385Z,101932.56
2023-10-10T09:01:40.984Z,101931.97
2023-10-10T09:04:13.903Z,101927.34
2023-10-10T09:06:59.155Z,101936.44
2023-10-10T09:09:41.181Z,101927.09
2023-10-10T09:12:16.088Z,101931.19
2023-10-10T09:14:52.811Z,101927.41
2023-10-10T09:17:30.088Z,101927.56
2023-10-10T09:20:05.644Z,101931.31
2023-10-10T09:22:35.904Z,101929.63
2023-10-10T09:25:19.382Z,101926.72
2023-10-10T09:28:09.404Z,101929.34
2023-10-10T09:30:41.859Z,101928.00
2023-10-10T09:33:23.773Z,101929.84
2023-10-10T09:35:59.997Z,101928.44
2023-10-10T09:38:45.069Z,101928.03
2023-10-10T09:41:36.987Z,101921.44
2023-10-10T09:44:24.555Z,101931.56
2023-10-10T09:47:04.878Z,101926.63
2023-10-10T09:50:14.127Z,101923.47
2023-10-10T09:53:00.184Z,101922.81
2023-10-10T09:55:33.694Z,101925.53
2023-10-10T09:58:01.302Z,101923.28
2023-10-10T10:00:41.155Z,101922.06
2023-10-10T10:03:30.770Z,101925.25
2023-10-10T10:06:24.102Z,101916.19
2023-10-10T10:09:19.591Z,101915.22
2023-10-10T10:11:53.085Z,101912.56
2023-10-10T10:14:27.008Z,101914.56
2023-10-10T10:17:17.280Z,101918.47
2023-10-10T10:19:49.405Z,101917.47
2023-10-10T10:22:20.267Z,101916.47
2023-10-10T10:24:47.084Z,101920.91
2023-10-10T10:27:40.778Z,101908.63
2023-10-10T10:30:20.313Z,101914.28
2023-10-10T10:32:55.702Z,101915.91
2023-10-10T10:35:25.035Z,101909.28
2023-10-10T10:38:00.597Z,101914.13
2023-10-10T10:40:40.684Z,101916.22
2023-10-10T10:43:16.895Z,101918.34
2023-10-10T10:45:53.052Z,101914.88
2023-10-10T10:48:35.424Z,101905.69
2023-10-10T10:51:27.963Z,101905.56
2023-10-10T10:54:00.292Z,101901.34
2023-10-10T10:56:32.574Z,101898.94
2023-10-10T10:59:14.100Z,101895.09
2023-10-10T11:01:59.053Z,101895.66
2023-10-10T11:04:33.863Z,101889.38
2023-10-10T11:07:08.338Z,101888.38
2023-10-10T11:09:44.160Z,101893.56
2023-10-10T11:12:11.084Z,101883.28
2023-10-10T11:14:47.796Z,101878.09
2023-10-10T11:17:19.373Z,101880.00
2023-10-10T11:19:55.646Z,101877.28
2023-10-10T11:22:39.581Z,101872.03
2023-10-10T11:25:07.488Z,101873.97
2023-10-10T11:27:45.024Z,101867.22
2023-10-10T11:30:13.923Z,101864.50
2023-10-10T11:33:01.430Z,101863.16
2023-10-10T11:35:30.698Z,101862.50
2023-10-10T11:38:00.897Z,101860.09
2023-10-10T11:40:32.060Z,101856.56
2023-10-10T11:43:14.343Z,101863.84
2023-10-10T11:45:42.336Z,101850.16
2023-10-10T11:48:16.940Z,101846.94
2023-10-10T11:50:52.638Z,101850.16
2023-10-10T11:53:28.762Z,101840.56
2023-10-10T11:55:57.747Z,101845.50
2023-10-10T11:58:37.453Z,101837.00
2023-10-10T12:01:07.540Z,101834.34
2023-10-10T12:03:42.164Z,101826.66
2023-10-10T12:06:19.952Z,101829.94
2023-10-10T12:08:52.172Z,101823.06
2023-10-10T12:11:23.419Z,101825.25
2023-10-10T12:13:55.445Z,101819.53
2023-10-10T12:16:25.646Z,101823.06
2023-10-10T12:18:54.594Z,101817.34
2023-10-10T12:21:23.153Z,101810.75
2023-10-10T12:24:02.333Z,101811.09
2023-10-10T12:26:31.498Z,101814.66
2023-10-10T12:28:58.834Z,101805.63
2023-10-10T12:31:25.786Z,101809.75
2023-10-10T12:33:55.268Z,101811.94
2023-10-10T12:36:30.848Z,101800.81
2023-10-10T12:39:00.681Z,101804.06
2023-10-10T12:41:29.122Z,101801.56
2023-10-10T12:43:56.309Z,101803.75
2023-10-10T12:46:23.207Z,101804.81
2023-10-10T12:48:53.255Z,101801.53
2023-10-10T12:51:24.034Z,101794.72
2023-10-10T12:53:58.179Z,101796.63
2023-10-10T12:56:25.290Z,101790.97
2023-10-10T12:59:05.205Z,101789.63
2023-10-10T13:01:38.388Z,101794.59
2023-10-10T13:04:09.238Z,101790.81
2023-10-10T13:06:41.045Z,101780.47
2023-10-10T13:09:09.864Z,101790.31
2023-10-10T13:11:46.160Z,101789.78
2023-10-10T13:14:18.586Z,101786.81
2023-10-10T13:16:45.468Z,101786.50
2023-10-10T13:19:13.433Z,101779.69
2023-10-10T13:21:42.469Z,101780.22
2023-10-10T13:24:15.247Z,101770.06
2023-10-10T13:26:50.661Z,101777.47
2023-10-10T13:29:18.740Z,101782.63
2023-10-10T13:31:50.471Z,101769.25
2023-10-10T13:34:23.691Z,101772.78
2023-10-10T13:36:51.135Z,101765.97
2023-10-10T13:39:34.468Z,101769.75
2023-10-10T13:42:01.570Z,101758.34
2023-10-10T13:44:28.483Z,101759.19
2023-10-10T13:46:56.243Z,101752.59
2023-10-10T13:49:23.014Z,101752.59
2023-10-10T13:51:53.383Z,101750.38
2023-10-10T13:54:20.761Z,101750.94
2023-10-10T13:56:47.811Z,101745.50
2023-10-10T13:59:18.441Z,101749.59
2023-10-10T14:01:45.506Z,101755.88
2023-10-10T14:04:24.551Z,101749.28
2023-10-10T14:06:51.689Z,101749.56
2023-10-10T14:09:36.269Z,101752.28
2023-10-10T14:12:09.981Z,101753.66
2023-10-10T14:14:37.688Z,101750.91
2023-10-10T14:17:07.272Z,101754.22
2023-10-10T14:19:35.960Z,101750.56
2023-10-10T14:22:11.358Z,101757.41
2023-10-10T14:24:38.556Z,101756.03
2023-10-10T14:27:09.387Z,101747.28
2023-10-10T14:29:43.027Z,101750.06
2023-10-10T14:32:20.080Z,101755.22
2023-10-10T14:34:59.231Z,101747.84
2023-10-10T14:37:41.794Z,101751.38
2023-10-10T14:40:13.231Z,101745.06
2023-10-10T14:42:42.951Z,101751.06
2023-10-10T14:45:10.440Z,101750.78
2023-10-10T14:47:40.669Z,101749.19
2023-10-10T14:50:11.905Z,101745.91
2023-10-10T14:52:41.541Z,101753.03
2023-10-10T14:55:24.579Z,101747.03
2023-10-10T14:57:59.104Z,101749.44
2023-10-10T15:00:29.592Z,101749.72
2023-10-10T15:02:57.639Z,101750.28
2023-10-10T15:05:25.925Z,101750.84
2023-10-10T15:07:53.936Z,101754.13
2023-10-10T15:10:24.765Z,101755.47
2023-10-10T15:12:51.617Z,101749.97
2023-10-10T15:15:18.455Z,101748.38
2023-10-10T15:17:45.439Z,101751.91
2023-10-10T15:20:15.560Z,101749.72
2023-10-10T15:22:43.268Z,101747.03
2023-10-10T15:25:12.010Z,101750.25
2023-10-10T15:27:42.076Z,101752.94
2023-10-10T15:30:10.040Z,101742.84
2023-10-10T15:32:49.373Z,101748.59
2023-10-10T15:35:18.548Z,101753.00
2023-10-10T15:37:45.615Z,101745.91
2023-10-10T15:40:24.145Z,101747.78
2023-10-10T15:42:52.941Z,101744.78
2023-10-10T15:45:23.098Z,101739.59
2023-10-10T15:47:54.112Z,101744.47
2023-10-10T15:50:22.951Z,101740.94
2023-10-10T15:52:50.333Z,101747.50
2023-10-10T15:55:24.991Z,101745.31
2023-10-10T15:57:57.086Z,101753.72
2023-10-10T16:00:34.330Z,101742.28
2023-10-10T16:03:08.062Z,101745.59
2023-10-10T16:05:46.295Z,101744.16
2023-10-10T16:08:13.707Z,101746.31
2023-10-10T16:10:42.835Z,101743.28
2023-10-10T16:13:10.408Z,101743.34
2023-10-10T16:15:38.229Z,101743.84
2023-10-10T16:18:06.149Z,101742.44
2023-10-10T16:20:37.089Z,101747.34
2023-10-10T16:23:09.482Z,101747.56
2023-10-10T16:25:38.527Z,101748.34
2023-10-10T16:28:08.712Z,101744.56
2023-10-10T16:30:40.675Z,101741.50
2023-10-10T16:33:12.039Z,101751.03
2023-10-10T16:35:41.528Z,101749.84
2023-10-10T16:38:08.362Z,101751.44
2023-10-10T16:40:35.643Z,101752.78
2023-10-10T16:43:03.457Z,101761.09
2023-10-10T16:45:33.743Z,101764.72
2023-10-10T16:48:02.731Z,101758.13
2023-10-10T16:50:29.772Z,101759.13
2023-10-10T16:53:09.840Z,101763.63
2023-10-10T16:55:38.299Z,101776.31
2023-10-10T16:58:05.067Z,101770.72
2023-10-10T17:00:31.917Z,101773.09
2023-10-10T17:02:58.904Z,101774.31
2023-10-10T17:05:29.217Z,101785.69
2023-10-10T17:07:57.570Z,101783.41
2023-10-10T17:10:24.407Z,101780.06
2023-10-10T17:12:53.083Z,101777.75
2023-10-10T17:15:20.136Z,101783.38
2023-10-10T17:17:47.442Z,101788.81
2023-10-10T17:20:17.630Z,101788.47
2023-10-10T17:22:51.329Z,101790.50
2023-10-10T17:25:19.391Z,101794.78
2023-10-10T17:27:46.583Z,101798.72
2023-10-10T17:30:15.482Z,101801.78
2023-10-10T17:32:43.850Z,101801.44
2023-10-10T17:35:11.344Z,101798.97
2023-10-10T17:37:41.668Z,101794.34
2023-10-10T17:40:14.184Z,101796.13
2023-10-10T17:42:50.186Z,101804.28
2023-10-10T17:45:17.663Z,101806.09
2023-10-10T17:47:44.919Z,101812.28
2023-10-10T17:50:11.866Z,101807.91
2023-10-10T17:52:39.281Z,101808.66
2023-10-10T17:55:09.827Z,101809.38
2023-10-10T17:57:36.643Z,101824.53
2023-10-10T18:00:17.109Z,101822.41
2023-10-10T18:02:46.437Z,101822.91
2023-10-10T18:05:17.074Z,101823.47
2023-10-10T18:07:45.161Z,101826.34
2023-10-10T18:10:14.457Z,101829.06
2023-10-10T18:12:42.203Z,101829.31
2023-10-10T18:15:13.260Z,101828.50
2023-10-10T18:17:40.579Z,101834.75
2023-10-10T18:20:17.421Z,101831.44
2023-10-10T18:22:49.788Z,101830.84
2023-10-10T18:25:19.392Z,101828.03
2023-10-10T18:27:48.436Z,101832.22
2023-10-10T18:30:17.420Z,101827.13
2023-10-10T18:32:46.449Z,101836.69
2023-10-10T18:35:15.121Z,101837.16
2023-10-10T18:37:44.211Z,101839.78
2023-10-10T18:40:18.537Z,101840.63
2023-10-10T18:42:48.037Z,101840.16
2023-10-10T18:45:19.751Z,101846.66
2023-10-10T18:47:50.202Z,101842.75
2023-10-10T18:50:20.385Z,101845.13
2023-10-10T18:52:51.251Z,101850.31
2023-10-10T18:55:19.463Z,101851.53
2023-10-10T18:57:50.352Z,101849.72
2023-10-10T19:00:17.938Z,101853.84
2023-10-10T19:02:45.865Z,101854.66
2023-10-10T19:05:18.587Z,101860.59
2023-10-10T19:07:46.732Z,101859.78
2023-10-10T19:10:17.397Z,101864.13
2023-10-10T19:12:46.131Z,101861.66
2023-10-10T19:15:16.176Z,101862.00
2023-10-10T19:17:53.304Z,101860.84
2023-10-10T19:20:24.648Z,101862.97
2023-10-10T19:22:53.485Z,101865.47
2023-10-10T19:25:20.724Z,101867.00
2023-10-10T19:27:58.784Z,101866.78
2023-10-10T19:30:27.225Z,101876.00
2023-10-10T19:32:54.729Z,101867.72
2023-10-10T19:35:23.013Z,101875.75
2023-10-10T19:37:50.856Z,101869.63
2023-10-10T19:40:22.180Z,101868.47
2023-10-10T19:42:52.953Z,101864.94
2023-10-10T19:45:25.979Z,101868.38
2023-10-10T19:48:03.818Z,101869.91
2023-10-10T19:50:32.098Z,101870.84
2023-10-10T19:52:59.184Z,101861.50
2023-10-10T19:55:26.573Z,101872.59
2023-10-10T19:57:53.414Z,101878.03
2023-10-10T20:00:23.065Z,101869.28
2023-10-10T20:02:51.382Z,101868.56
2023-10-10T20:05:21.724Z,101873.88
2023-10-10T20:07:54.929Z,101876.34
2023-10-10T20:10:23.537Z,101872.91
2023-10-10T20:12:55.645Z,101880.38
2023-10-10T20:15:25.458Z,101884.50
2023-10-10T20:17:53.203Z,101877.53
2023-10-10T20:20:27.215Z,101883.53
2023-10-10T20:22:57.941Z,101877.09
2023-10-10T20:25:25.236Z,101884.84
2023-10-10T20:27:52.082Z,101873.41
2023-10-10T20:30:23.435Z,101873.66
2023-10-10T20:32:52.138Z,101879.06
2023-10-10T20:35:25.686Z,101878.00
2023-10-10T20:37:57.983Z,101881.78
2023-10-10T20:40:30.686Z,101883.75
2023-10-10T20:43:02.032Z,101882.94
2023-10-10T20:45:30.341Z,101884.13
2023-10-10T20:47:58.770Z,101882.09
2023-10-10T20:50:32.659Z,101879.88
2023-10-10T20:53:01.198Z,101886.34
2023-10-10T20:55:29.841Z,101879.50
2023-10-10T20:57:58.710Z,101877.63
2023-10-10T21:00:29.891Z,101877.88
2023-10-10T21:02:59.826Z,101884.34
2023-10-10T21:05:27.668Z,101885.00
2023-10-10T21:07:58.275Z,101881.50
2023-10-10T21:10:25.623Z,101879.72
2023-10-10T21:12:52.786Z,101874.88
2023-10-10T21:15:21.587Z,101883.72
2023-10-10T21:17:50.128Z,101885.59
2023-10-10T21:20:26.186Z,101892.53
2023-10-10T21:22:54.180Z,101881.09
2023-10-10T21:25:24.724Z,101881.56
2023-10-10T21:27:56.194Z,101880.16
2023-10-10T21:30:24.845Z,101884.72
2023-10-10T21:32:52.603Z,101881.91
2023-10-10T21:35:23.274Z,101877.91
2023-10-10T21:37:50.291Z,101882.41
2023-10-10T21:40:21.482Z,101875.81
2023-10-10T21:42:50.268Z,101880.25
2023-10-10T21:45:19.874Z,101884.03
2023-10-10T21:47:48.282Z,101883.28
2023-10-10T21:50:18.021Z,101874.78
2023-10-10T21:52:47.426Z,101870.41
2023-10-10T21:55:19.661Z,101873.00
2023-10-10T21:57:51.050Z,101872.03
2023-10-10T22:00:42.392Z,101875.88
2023-10-10T22:03:09.625Z,101867.50
2023-10-10T22:05:38.658Z,101866.94
2023-10-10T22:08:07.829Z,101871.72
2023-10-10T22:10:36.795Z,101865.25
2023-10-10T22:13:07.340Z,101863.59
2023-10-10T22:15:36.362Z,101865.72
2023-10-10T22:18:06.129Z,101868.44
2023-10-10T22:20:36.747Z,101859.69
2023-10-10T22:23:05.914Z,101860.38
2023-10-10T22:25:35.874Z,101857.75
2023-10-10T22:28:05.044Z,101863.00
2023-10-10T22:30:38.756Z,101860.75
2023-10-10T22:33:11.952Z,101858.06
2023-10-10T22:35:39.940Z,101862.66
2023-10-10T22:38:07.382Z,101858.06
2023-10-10T22:40:35.286Z,101852.03
2023-10-10T22:43:05.264Z,101853.97
2023-10-10T22:45:34.782Z,101860.06
2023-10-10T22:48:03.035Z,101854.13
2023-10-10T22:50:34.074Z,101856.50
2023-10-10T22:53:03.075Z,101857.28
2023-10-10T22:55:35.140Z,101860.44
2023-10-10T22:58:08.149Z,101865.06
2023-10-10T23:00:39.540Z,101863.38
2023-10-10T23:03:12.328Z,101857.91
2023-10-10T23:05:41.000Z,101861.06
2023-10-10T23:08:08.660Z,101857.63
2023-10-10T23:10:40.352Z,101852.50
2023-10-10T23:13:14.296Z,101853.63
2023-10-10T23:15:41.545Z,101854.84
2023-10-10T23:18:12.106Z,101841.16
2023-10-10T23:20:42.720Z,101852.16
2023-10-10T23:23:12.208Z,101851.72
2023-10-10T23:25:39.757Z,101846.69
2023-10-10T23:28:09.792Z,101846.59
2023-10-10T23:30:40.542Z,101848.09
2023-10-10T23:33:13.244Z,101838.34
2023-10-10T23:35:41.319Z,101847.88
2023-10-10T23:38:08.296Z,101846.97
2023-10-10T23:40:47.171Z,101844.69
2023-10-10T23:43:22.966Z,101845.25
2023-10-10T23:45:58.320Z,101847.59
2023-10-10T23:48:32.252Z,101848.59
2023-10-10T23:50:59.661Z,101844.00
2023-10-10T23:53:26.704Z,101844.16
2023-10-10T23:56:00.512Z,101850.38
2023-10-10T23:58:28.916Z,101846.19
